createdAt,value
2019-01-12T00:00:29.636Z,24.66
2019-01-12T00:01:31.255Z,24.65
2019-01-12T00:02:32.349Z,24.72
2019-01-12T00:03:33.560Z,24.66
2019-01-12T00:04:34.697Z,24.65
2019-01-12T00:05:35.806Z,24.70
2019-01-12T00:06:36.917Z,24.76
2019-01-12T00:07:38.038Z,24.75
2019-01-12T00:08:39.283Z,24.72
2019-01-12T00:09:40.390Z,24.74
2019-01-12T00:10:41.600Z,24.74
2019-01-12T00:11:42.713Z,24.80
2019-01-12T00:12:43.829Z,24.76
2019-01-12T00:13:44.940Z,24.72
2019-01-12T00:14:46.072Z,24.79
2019-01-12T00:15:47.191Z,24.83
2019-01-12T00:16:48.303Z,24.82
2019-01-12T00:17:49.420Z,24.81
2019-01-12T00:18:50.536Z,24.88
2019-01-12T00:19:51.759Z,24.92
2019-01-12T00:20:52.976Z,24.92
2019-01-12T00:21:54.092Z,24.87
2019-01-12T00:22:55.300Z,24.99
2019-01-12T00:23:56.418Z,25.04
2019-01-12T00:24:57.657Z,25.06
2019-01-12T00:25:58.780Z,25.05
2019-01-12T00:26:59.892Z,24.96
2019-01-12T00:28:01.008Z,24.96
2019-01-12T00:29:02.116Z,24.97
2019-01-12T00:30:08.897Z,25.01
2019-01-12T00:31:10.013Z,24.98
2019-01-12T00:32:11.376Z,25.04
2019-01-12T00:33:12.488Z,24.98
2019-01-12T00:34:13.705Z,25.01
2019-01-12T00:35:14.828Z,25.05
2019-01-12T00:36:15.942Z,25.01
2019-01-12T00:37:17.137Z,25.00
2019-01-12T00:38:18.252Z,25.07
2019-01-12T00:39:19.416Z,25.17
2019-01-12T00:40:20.609Z,25.05
2019-01-12T00:41:21.720Z,25.00
2019-01-12T00:42:22.936Z,25.09
2019-01-12T00:43:24.052Z,25.08
2019-01-12T00:44:25.165Z,25.05
2019-01-12T00:45:26.292Z,25.11
2019-01-12T00:46:27.412Z,25.06
2019-01-12T00:47:28.630Z,25.08
2019-01-12T00:48:29.741Z,25.08
2019-01-12T00:49:30.850Z,25.14
2019-01-12T00:50:31.975Z,25.14
2019-01-12T00:51:33.087Z,25.12
2019-01-12T00:52:34.195Z,25.17
2019-01-12T00:53:35.318Z,25.16
2019-01-12T00:54:38.562Z,25.09
2019-01-12T00:55:39.665Z,25.14
2019-01-12T00:56:40.776Z,25.09
2019-01-12T00:57:41.891Z,25.14
2019-01-12T00:58:43.003Z,25.09
2019-01-12T00:59:44.126Z,25.15
2019-01-12T01:00:45.352Z,25.13
2019-01-12T01:01:46.472Z,25.18
2019-01-12T01:02:47.576Z,25.13
2019-01-12T01:03:48.688Z,25.13
2019-01-12T01:04:49.796Z,25.18
2019-01-12T01:05:51.223Z,25.17
2019-01-12T01:06:52.343Z,25.21
2019-01-12T01:07:53.455Z,25.24
2019-01-12T01:08:54.665Z,25.25
2019-01-12T01:09:55.780Z,25.26
2019-01-12T01:10:56.902Z,25.25
2019-01-12T01:11:58.011Z,25.29
2019-01-12T01:12:59.226Z,25.26
2019-01-12T01:14:00.336Z,25.27
2019-01-12T01:15:01.448Z,25.28
2019-01-12T01:16:02.768Z,25.29
2019-01-12T01:17:03.982Z,25.26
2019-01-12T01:18:05.091Z,25.31
2019-01-12T01:19:06.312Z,25.26
2019-01-12T01:20:10.426Z,25.32
2019-01-12T01:21:11.550Z,25.31
2019-01-12T01:22:12.661Z,25.31
2019-01-12T01:23:13.768Z,25.39
2019-01-12T01:24:14.987Z,25.42
2019-01-12T01:25:16.132Z,25.37
2019-01-12T01:26:17.357Z,25.28
2019-01-12T01:27:18.477Z,25.28
2019-01-12T01:28:19.592Z,25.25
2019-01-12T01:29:20.700Z,25.37
2019-01-12T01:30:21.820Z,25.41
2019-01-12T01:31:23.058Z,25.36
2019-01-12T01:32:24.268Z,25.36
2019-01-12T01:33:28.117Z,25.41
2019-01-12T01:34:28.845Z,25.46
2019-01-12T01:35:29.954Z,25.39
2019-01-12T01:36:31.081Z,25.35
2019-01-12T01:37:32.205Z,25.42
2019-01-12T01:38:33.318Z,25.47
2019-01-12T01:39:34.540Z,25.42
2019-01-12T01:40:35.649Z,25.38
2019-01-12T01:41:36.777Z,25.45
2019-01-12T01:42:37.889Z,25.41
2019-01-12T01:43:39.000Z,25.40
2019-01-12T01:44:40.108Z,25.39
2019-01-12T01:45:41.224Z,25.42
2019-01-12T01:46:42.352Z,25.48
2019-01-12T01:47:43.467Z,25.39
2019-01-12T01:48:44.580Z,25.45
2019-01-12T01:49:45.695Z,25.49
2019-01-12T01:50:46.913Z,25.45
2019-01-12T01:51:48.047Z,25.42
2019-01-12T01:52:49.153Z,25.46
2019-01-12T01:53:50.277Z,25.41
2019-01-12T01:54:52.899Z,25.42
2019-01-12T01:55:54.308Z,25.46
2019-01-12T01:56:55.437Z,25.43
2019-01-12T01:57:56.653Z,25.41
2019-01-12T01:58:57.765Z,25.45
2019-01-12T01:59:58.928Z,25.43
2019-01-12T02:01:00.093Z,25.37
2019-01-12T02:02:01.219Z,25.35
2019-01-12T02:03:02.329Z,25.40
2019-01-12T02:04:03.446Z,25.40
2019-01-12T02:05:04.657Z,25.40
2019-01-12T02:06:05.780Z,25.33
2019-01-12T02:07:06.900Z,25.34
2019-01-12T02:08:08.013Z,25.39
2019-01-12T02:09:09.228Z,25.36
2019-01-12T02:10:14.049Z,25.38
2019-01-12T02:11:15.165Z,25.38
2019-01-12T02:12:16.298Z,25.42
2019-01-12T02:13:17.408Z,25.44
2019-01-12T02:14:18.528Z,25.40
2019-01-12T02:15:20.542Z,25.43
2019-01-12T02:16:21.652Z,25.43
2019-01-12T02:17:22.785Z,25.41
2019-01-12T02:18:23.896Z,25.50
2019-01-12T02:19:25.008Z,25.47
2019-01-12T02:20:26.224Z,25.42
2019-01-12T02:21:27.444Z,25.51
2019-01-12T02:22:28.565Z,25.57
2019-01-12T02:23:29.683Z,25.57
2019-01-12T02:24:30.792Z,25.56
2019-01-12T02:25:31.919Z,25.54
2019-01-12T02:26:33.025Z,25.54
2019-01-12T02:27:34.262Z,25.57
2019-01-12T02:28:35.480Z,25.54
2019-01-12T02:29:36.596Z,25.54
2019-01-12T02:30:37.706Z,25.56
2019-01-12T02:31:38.930Z,25.60
2019-01-12T02:32:40.059Z,25.56
2019-01-12T02:33:41.272Z,25.61
2019-01-12T02:34:42.383Z,25.63
2019-01-12T02:35:43.502Z,25.65
2019-01-12T02:36:44.611Z,25.64
2019-01-12T02:37:45.848Z,25.64
2019-01-12T02:38:46.979Z,25.62
2019-01-12T02:39:48.085Z,25.61
2019-01-12T02:40:49.194Z,25.62
2019-01-12T02:41:50.309Z,25.65
2019-01-12T02:42:51.431Z,25.66
2019-01-12T02:43:52.546Z,25.66
2019-01-12T02:44:53.661Z,25.63
2019-01-12T02:45:54.876Z,25.62
2019-01-12T02:46:55.993Z,25.63
2019-01-12T02:47:57.128Z,25.64
2019-01-12T02:48:58.242Z,25.68
2019-01-12T02:49:59.354Z,25.69
2019-01-12T02:51:00.480Z,25.74
2019-01-12T02:52:01.590Z,25.67
2019-01-12T02:53:02.712Z,25.67
2019-01-12T02:54:03.824Z,25.65
2019-01-12T02:55:09.045Z,25.68
2019-01-12T02:56:09.049Z,25.70
2019-01-12T02:57:10.265Z,25.68
2019-01-12T02:58:11.389Z,25.67
2019-01-12T02:59:12.507Z,25.71
2019-01-12T03:00:15.420Z,25.73
2019-01-12T03:01:16.529Z,25.72
2019-01-12T03:02:17.640Z,25.70
2019-01-12T03:03:18.768Z,25.74
2019-01-12T03:04:19.875Z,25.78
2019-01-12T03:05:21.092Z,25.88
2019-01-12T03:06:22.205Z,25.83
2019-01-12T03:07:23.567Z,25.73
2019-01-12T03:08:24.692Z,25.71
2019-01-12T03:09:25.808Z,25.73
2019-01-12T03:10:26.917Z,25.78
2019-01-12T03:11:28.038Z,25.77
2019-01-12T03:12:29.197Z,25.76
2019-01-12T03:13:30.348Z,25.73
2019-01-12T03:14:31.465Z,25.78
2019-01-12T03:15:32.578Z,25.72
2019-01-12T03:16:33.693Z,25.75
2019-01-12T03:17:34.904Z,25.72
2019-01-12T03:18:36.029Z,25.72
2019-01-12T03:19:37.147Z,25.74
2019-01-12T03:20:38.260Z,25.83
2019-01-12T03:21:39.378Z,25.86
2019-01-12T03:22:40.536Z,25.77
2019-01-12T03:23:41.664Z,25.78
2019-01-12T03:24:42.783Z,25.81
2019-01-12T03:25:43.893Z,25.81
2019-01-12T03:26:45.012Z,25.79
2019-01-12T03:27:46.148Z,25.85
2019-01-12T03:28:47.270Z,25.82
2019-01-12T03:29:48.484Z,25.83
2019-01-12T03:30:49.608Z,25.83
2019-01-12T03:31:50.715Z,25.90
2019-01-12T03:32:51.835Z,25.86
2019-01-12T03:33:53.065Z,25.85
2019-01-12T03:34:54.172Z,25.78
2019-01-12T03:35:55.285Z,25.76
2019-01-12T03:36:56.401Z,25.75
2019-01-12T03:37:57.614Z,25.83
2019-01-12T03:38:58.740Z,25.80
2019-01-12T03:39:59.855Z,25.86
2019-01-12T03:41:00.969Z,25.79
2019-01-12T03:42:02.081Z,25.83
2019-01-12T03:43:03.596Z,25.88
2019-01-12T03:44:04.723Z,25.81
2019-01-12T03:45:08.233Z,25.81
2019-01-12T03:46:09.440Z,25.80
2019-01-12T03:47:10.555Z,25.78
2019-01-12T03:48:11.673Z,25.84
2019-01-12T03:49:12.810Z,25.88
2019-01-12T03:50:14.419Z,25.86
2019-01-12T03:51:15.532Z,25.85
2019-01-12T03:52:16.638Z,25.85
2019-01-12T03:53:17.752Z,25.90
2019-01-12T03:54:18.880Z,25.89
2019-01-12T03:55:25.618Z,25.82
2019-01-12T03:56:23.016Z,25.83
2019-01-12T03:57:24.133Z,25.88
2019-01-12T03:58:25.243Z,25.78
2019-01-12T03:59:26.376Z,25.83
2019-01-12T04:00:27.485Z,25.89
2019-01-12T04:01:28.604Z,25.92
2019-01-12T04:02:29.726Z,25.88
2019-01-12T04:03:30.840Z,25.97
2019-01-12T04:04:31.973Z,25.86
2019-01-12T04:05:33.080Z,25.82
2019-01-12T04:06:34.197Z,25.78
2019-01-12T04:07:35.307Z,25.82
2019-01-12T04:08:36.420Z,25.82
2019-01-12T04:09:37.718Z,25.84
2019-01-12T04:10:38.824Z,25.76
2019-01-12T04:11:39.969Z,25.83
2019-01-12T04:12:41.070Z,25.81
2019-01-12T04:13:42.180Z,25.89
2019-01-12T04:14:43.305Z,25.84
2019-01-12T04:15:44.417Z,25.89
2019-01-12T04:16:45.533Z,25.86
2019-01-12T04:17:46.815Z,25.84
2019-01-12T04:18:47.929Z,25.82
2019-01-12T04:19:49.053Z,25.87
2019-01-12T04:20:50.163Z,25.90
2019-01-12T04:21:51.476Z,25.86
2019-01-12T04:22:52.587Z,25.90
2019-01-12T04:23:53.703Z,25.88
2019-01-12T04:24:54.829Z,25.91
2019-01-12T04:25:56.050Z,25.96
2019-01-12T04:26:57.295Z,25.94
2019-01-12T04:27:58.510Z,25.94
2019-01-12T04:28:59.621Z,25.92
2019-01-12T04:30:00.754Z,25.94
2019-01-12T04:31:01.874Z,25.97
2019-01-12T04:32:02.986Z,25.95
2019-01-12T04:33:04.104Z,25.96
2019-01-12T04:34:05.213Z,25.93
2019-01-12T04:35:06.744Z,26.00
2019-01-12T04:36:07.860Z,26.01
2019-01-12T04:37:08.970Z,26.01
2019-01-12T04:38:10.201Z,25.92
2019-01-12T04:39:11.315Z,25.93
2019-01-12T04:40:15.141Z,25.93
2019-01-12T04:41:16.253Z,26.03
2019-01-12T04:42:17.368Z,25.96
2019-01-12T04:43:18.490Z,25.89
2019-01-12T04:44:19.608Z,26.02
2019-01-12T04:45:20.794Z,26.07
2019-01-12T04:46:21.944Z,26.02
2019-01-12T04:47:23.059Z,25.99
2019-01-12T04:48:24.171Z,25.97
2019-01-12T04:49:25.284Z,26.00
2019-01-12T04:50:26.516Z,26.00
2019-01-12T04:51:27.730Z,26.00
2019-01-12T04:52:28.842Z,25.98
2019-01-12T04:53:29.961Z,25.96
2019-01-12T04:54:31.063Z,26.00
2019-01-12T04:55:32.391Z,26.00
2019-01-12T04:56:33.506Z,25.95
2019-01-12T04:57:34.628Z,26.00
2019-01-12T04:58:35.840Z,26.04
2019-01-12T04:59:36.955Z,26.04
2019-01-12T05:00:38.185Z,25.96
2019-01-12T05:01:39.300Z,25.92
2019-01-12T05:02:40.412Z,25.94
2019-01-12T05:03:41.530Z,25.97
2019-01-12T05:04:42.751Z,26.00
2019-01-12T05:05:43.873Z,26.08
2019-01-12T05:06:45.090Z,26.00
2019-01-12T05:07:46.322Z,25.94
2019-01-12T05:08:47.421Z,25.98
2019-01-12T05:09:48.537Z,26.01
2019-01-12T05:10:49.665Z,26.04
2019-01-12T05:11:56.155Z,25.99
2019-01-12T05:12:57.274Z,25.96
2019-01-12T05:13:58.389Z,26.00
2019-01-12T05:14:59.504Z,25.97
2019-01-12T05:16:00.628Z,25.93
2019-01-12T05:17:01.740Z,25.88
2019-01-12T05:18:02.973Z,25.93
2019-01-12T05:19:04.088Z,25.96
2019-01-12T05:20:11.514Z,26.02
2019-01-12T05:21:12.640Z,25.96
2019-01-12T05:22:13.750Z,25.92
2019-01-12T05:23:14.867Z,26.00
2019-01-12T05:24:15.981Z,26.01
2019-01-12T05:25:17.594Z,26.07
2019-01-12T05:26:18.724Z,26.06
2019-01-12T05:27:19.860Z,26.00
2019-01-12T05:28:20.992Z,26.00
2019-01-12T05:29:22.105Z,25.95
2019-01-12T05:30:23.226Z,25.95
2019-01-12T05:31:24.341Z,25.95
2019-01-12T05:32:25.456Z,25.96
2019-01-12T05:33:26.678Z,26.00
2019-01-12T05:34:27.792Z,26.01
2019-01-12T05:35:28.908Z,26.01
2019-01-12T05:36:30.033Z,26.04
2019-01-12T05:37:31.257Z,26.02
2019-01-12T05:38:32.381Z,25.95
2019-01-12T05:39:33.492Z,26.02
2019-01-12T05:40:34.604Z,25.98
2019-01-12T05:41:35.728Z,26.03
2019-01-12T05:42:37.055Z,26.00
2019-01-12T05:43:38.170Z,25.97
2019-01-12T05:44:39.288Z,26.00
2019-01-12T05:45:40.396Z,26.02
2019-01-12T05:46:41.524Z,26.01
2019-01-12T05:47:42.736Z,26.02
2019-01-12T05:48:43.855Z,26.06
2019-01-12T05:49:44.974Z,26.01
2019-01-12T05:50:46.086Z,26.06
2019-01-12T05:51:47.219Z,26.02
2019-01-12T05:52:48.336Z,26.04
2019-01-12T05:53:49.525Z,26.04
2019-01-12T05:54:50.795Z,26.07
2019-01-12T05:55:57.109Z,26.02
2019-01-12T05:56:54.934Z,26.03
2019-01-12T05:57:56.056Z,26.05
2019-01-12T05:58:57.177Z,26.01
2019-01-12T05:59:58.289Z,26.04
2019-01-12T06:00:59.509Z,26.07
2019-01-12T06:02:00.640Z,26.01
2019-01-12T06:03:01.857Z,26.02
2019-01-12T06:04:03.269Z,25.99
2019-01-12T06:05:04.885Z,26.06
2019-01-12T06:06:05.996Z,26.10
2019-01-12T06:07:07.215Z,26.12
2019-01-12T06:08:08.331Z,26.06
2019-01-12T06:09:09.442Z,26.11
2019-01-12T06:10:11.452Z,26.08
2019-01-12T06:11:12.565Z,26.04
2019-01-12T06:12:13.689Z,26.02
2019-01-12T06:13:15.107Z,26.07
2019-01-12T06:14:16.320Z,26.13
2019-01-12T06:15:17.437Z,26.09
2019-01-12T06:16:18.544Z,26.09
2019-01-12T06:17:19.673Z,26.09
2019-01-12T06:18:20.889Z,26.08
2019-01-12T06:19:22.107Z,26.04
2019-01-12T06:20:23.329Z,26.08
2019-01-12T06:21:24.444Z,26.11
2019-01-12T06:22:25.577Z,26.07
2019-01-12T06:23:26.689Z,26.07
2019-01-12T06:24:27.807Z,26.08
2019-01-12T06:25:28.926Z,26.14
2019-01-12T06:26:30.037Z,26.15
2019-01-12T06:27:31.281Z,26.01
2019-01-12T06:28:32.431Z,26.08
2019-01-12T06:29:33.516Z,26.10
2019-01-12T06:30:34.636Z,26.09
2019-01-12T06:31:35.860Z,26.07
2019-01-12T06:32:36.978Z,26.12
2019-01-12T06:33:38.097Z,26.18
2019-01-12T06:34:39.322Z,26.16
2019-01-12T06:35:40.443Z,26.18
2019-01-12T06:36:41.585Z,26.19
2019-01-12T06:37:42.918Z,26.15
2019-01-12T06:38:44.118Z,26.12
2019-01-12T06:39:45.229Z,26.11
2019-01-12T06:40:46.342Z,26.07
2019-01-12T06:41:47.457Z,26.01
2019-01-12T06:42:48.582Z,25.96
2019-01-12T06:43:49.698Z,25.98
2019-01-12T06:44:51.080Z,26.04
2019-01-12T06:45:52.192Z,26.03
2019-01-12T06:46:53.308Z,26.04
2019-01-12T06:47:54.445Z,25.99
2019-01-12T06:48:55.552Z,26.00
2019-01-12T06:49:56.764Z,26.01
2019-01-12T06:50:57.983Z,25.94
2019-01-12T06:51:59.190Z,25.99
2019-01-12T06:53:00.342Z,26.04
2019-01-12T06:54:01.552Z,26.00
2019-01-12T06:55:04.760Z,25.99
2019-01-12T06:56:10.815Z,26.07
2019-01-12T06:57:08.984Z,26.05
2019-01-12T06:58:10.106Z,26.07
2019-01-12T06:59:12.217Z,26.05
2019-01-12T07:00:17.573Z,26.02
2019-01-12T07:01:18.679Z,26.03
2019-01-12T07:02:19.801Z,26.05
2019-01-12T07:03:21.226Z,26.06
2019-01-12T07:04:22.333Z,26.09
2019-01-12T07:05:23.560Z,26.06
2019-01-12T07:06:24.674Z,26.12
2019-01-12T07:07:25.788Z,26.09
2019-01-12T07:08:26.911Z,26.06
2019-01-12T07:09:28.020Z,26.07
2019-01-12T07:10:29.138Z,26.02
2019-01-12T07:11:30.256Z,26.07
2019-01-12T07:12:31.373Z,26.01
2019-01-12T07:13:32.500Z,25.99
2019-01-12T07:14:33.617Z,25.94
2019-01-12T07:15:34.737Z,25.83
2019-01-12T07:16:35.848Z,25.70
2019-01-12T07:17:36.962Z,25.74
2019-01-12T07:18:38.090Z,25.60
2019-01-12T07:19:39.200Z,25.58
2019-01-12T07:20:40.317Z,25.43
2019-01-12T07:21:41.581Z,25.29
2019-01-12T07:22:42.947Z,25.16
2019-01-12T07:23:44.166Z,25.11
2019-01-12T07:24:45.280Z,24.99
2019-01-12T07:25:46.399Z,24.88
2019-01-12T07:26:47.517Z,24.77
2019-01-12T07:27:48.665Z,24.68
2019-01-12T07:28:49.798Z,24.52
2019-01-12T07:29:50.913Z,24.40
2019-01-12T07:30:52.029Z,24.31
2019-01-12T07:31:53.143Z,24.18
2019-01-12T07:32:54.257Z,24.09
2019-01-12T07:33:55.430Z,24.02
2019-01-12T07:34:56.504Z,24.00
2019-01-12T07:35:57.640Z,23.94
2019-01-12T07:36:58.738Z,23.82
2019-01-12T07:37:59.861Z,23.75
2019-01-12T07:39:00.994Z,23.68
2019-01-12T07:40:02.903Z,23.61
2019-01-12T07:41:04.022Z,23.57
2019-01-12T07:42:05.236Z,23.50
2019-01-12T07:43:06.350Z,23.44
2019-01-12T07:44:07.481Z,23.40
2019-01-12T07:45:09.292Z,23.35
2019-01-12T07:46:10.405Z,23.27
2019-01-12T07:47:12.092Z,23.26
2019-01-12T07:48:13.201Z,23.18
2019-01-12T07:49:14.328Z,23.14
2019-01-12T07:50:15.436Z,23.09
2019-01-12T07:51:16.552Z,23.12
2019-01-12T07:52:17.668Z,23.07
2019-01-12T07:53:18.784Z,23.03
2019-01-12T07:54:20.020Z,22.98
2019-01-12T07:55:21.132Z,22.95
2019-01-12T07:56:24.684Z,22.95
2019-01-12T07:57:25.376Z,22.91
2019-01-12T07:58:26.597Z,22.90
2019-01-12T07:59:27.724Z,22.83
2019-01-12T08:00:28.837Z,22.83
2019-01-12T08:01:29.952Z,22.81
2019-01-12T08:02:31.066Z,22.81
2019-01-12T08:03:32.184Z,22.79
2019-01-12T08:04:33.422Z,22.80
2019-01-12T08:05:34.532Z,22.80
2019-01-12T08:06:35.641Z,22.77
2019-01-12T08:07:36.770Z,22.72
2019-01-12T08:08:37.891Z,22.71
2019-01-12T08:09:39.021Z,22.73
2019-01-12T08:10:40.140Z,22.77
2019-01-12T08:11:41.359Z,22.74
2019-01-12T08:12:42.471Z,22.72
2019-01-12T08:13:43.581Z,22.71
2019-01-12T08:14:44.708Z,22.69
2019-01-12T08:15:45.824Z,22.71
2019-01-12T08:16:46.940Z,22.74
2019-01-12T08:17:48.060Z,22.69
2019-01-12T08:18:49.169Z,22.71
2019-01-12T08:19:50.292Z,22.70
2019-01-12T08:20:51.412Z,22.68
2019-01-12T08:21:52.525Z,22.72
2019-01-12T08:22:53.846Z,22.73
2019-01-12T08:23:54.964Z,22.73
2019-01-12T08:24:56.090Z,22.75
2019-01-12T08:25:57.308Z,22.84
2019-01-12T08:26:58.430Z,22.83
2019-01-12T08:27:59.558Z,22.75
2019-01-12T08:29:00.699Z,22.81
2019-01-12T08:30:05.033Z,22.79
2019-01-12T08:31:06.258Z,22.83
2019-01-12T08:32:07.376Z,22.83
2019-01-12T08:33:08.485Z,22.79
2019-01-12T08:34:09.598Z,22.80
2019-01-12T08:35:10.821Z,22.83
2019-01-12T08:36:11.935Z,22.86
2019-01-12T08:37:13.156Z,22.83
2019-01-12T08:38:14.281Z,22.80
2019-01-12T08:39:15.397Z,22.83
2019-01-12T08:40:16.624Z,22.83
2019-01-12T08:41:17.739Z,22.86
2019-01-12T08:42:18.845Z,22.83
2019-01-12T08:43:19.962Z,22.87
2019-01-12T08:44:21.080Z,22.86
2019-01-12T08:45:22.195Z,22.87
2019-01-12T08:46:23.313Z,22.83
2019-01-12T08:47:24.426Z,22.84
2019-01-12T08:48:25.539Z,22.81
2019-01-12T08:49:26.761Z,22.80
2019-01-12T08:50:27.885Z,22.83
2019-01-12T08:51:29.002Z,22.82
2019-01-12T08:52:30.123Z,22.80
2019-01-12T08:53:31.241Z,22.79
2019-01-12T08:54:32.358Z,22.78
2019-01-12T08:55:33.480Z,22.82
2019-01-12T08:56:38.492Z,22.80
2019-01-12T08:57:37.704Z,22.78
2019-01-12T08:58:38.807Z,22.77
2019-01-12T08:59:39.928Z,22.78
2019-01-12T09:00:41.044Z,22.78
2019-01-12T09:01:42.162Z,22.78
2019-01-12T09:02:43.274Z,22.79
2019-01-12T09:03:44.391Z,22.81
2019-01-12T09:04:45.610Z,22.85
2019-01-12T09:05:46.731Z,22.82
2019-01-12T09:06:47.947Z,22.83
2019-01-12T09:07:49.166Z,22.80
2019-01-12T09:08:50.276Z,22.80
2019-01-12T09:09:51.399Z,22.81
2019-01-12T09:10:52.632Z,22.76
2019-01-12T09:11:53.848Z,22.79
2019-01-12T09:12:55.056Z,22.79
2019-01-12T09:13:56.173Z,22.80
2019-01-12T09:14:57.285Z,22.80
2019-01-12T09:15:58.418Z,22.81
2019-01-12T09:16:59.625Z,22.82
2019-01-12T09:18:00.731Z,22.81
2019-01-12T09:19:01.850Z,22.85
2019-01-12T09:20:09.157Z,22.83
2019-01-12T09:21:10.280Z,22.78
2019-01-12T09:22:11.393Z,22.80
2019-01-12T09:23:12.620Z,22.81
2019-01-12T09:24:13.733Z,22.78
2019-01-12T09:25:14.944Z,22.81
2019-01-12T09:26:16.067Z,22.82
2019-01-12T09:27:17.182Z,22.81
2019-01-12T09:28:18.311Z,22.84
2019-01-12T09:29:19.444Z,22.80
2019-01-12T09:30:20.959Z,22.82
2019-01-12T09:31:22.188Z,22.83
2019-01-12T09:32:23.303Z,22.79
2019-01-12T09:33:24.521Z,22.76
2019-01-12T09:34:25.634Z,22.78
2019-01-12T09:35:26.952Z,22.78
2019-01-12T09:36:28.080Z,22.75
2019-01-12T09:37:29.188Z,22.76
2019-01-12T09:38:30.416Z,22.80
2019-01-12T09:39:31.540Z,22.78
2019-01-12T09:40:32.760Z,22.77
2019-01-12T09:41:33.884Z,22.76
2019-01-12T09:42:35.099Z,22.85
2019-01-12T09:43:36.215Z,22.82
2019-01-12T09:44:37.437Z,22.81
2019-01-12T09:45:38.653Z,22.81
2019-01-12T09:46:39.880Z,22.77
2019-01-12T09:47:40.992Z,22.81
2019-01-12T09:48:42.126Z,22.82
2019-01-12T09:49:43.322Z,22.76
2019-01-12T09:50:44.435Z,22.76
2019-01-12T09:51:45.569Z,22.82
2019-01-12T09:52:46.976Z,22.81
2019-01-12T09:53:48.095Z,22.89
2019-01-12T09:54:49.213Z,22.92
2019-01-12T09:55:50.333Z,22.93
2019-01-12T09:56:51.928Z,22.94
2019-01-12T09:57:53.293Z,23.08
2019-01-12T09:58:54.418Z,23.13
2019-01-12T09:59:55.534Z,23.24
2019-01-12T10:00:56.749Z,23.35
2019-01-12T10:01:57.880Z,23.44
2019-01-12T10:02:58.988Z,23.54
2019-01-12T10:04:00.105Z,23.63
2019-01-12T10:05:01.252Z,23.65
2019-01-12T10:06:02.754Z,23.71
2019-01-12T10:07:03.990Z,23.80
2019-01-12T10:08:05.212Z,23.66
2019-01-12T10:09:06.320Z,23.55
2019-01-12T10:10:11.036Z,23.48
2019-01-12T10:11:12.148Z,23.38
2019-01-12T10:12:13.277Z,23.40
2019-01-12T10:13:14.393Z,23.42
2019-01-12T10:14:15.504Z,23.44
2019-01-12T10:15:16.613Z,23.32
2019-01-12T10:16:17.724Z,23.27
2019-01-12T10:17:18.952Z,23.25
2019-01-12T10:18:20.076Z,23.30
2019-01-12T10:19:21.197Z,23.29
2019-01-12T10:20:22.311Z,23.27
2019-01-12T10:21:23.533Z,23.25
2019-01-12T10:22:28.694Z,23.34
2019-01-12T10:23:28.142Z,23.28
2019-01-12T10:24:29.259Z,23.29
2019-01-12T10:25:30.476Z,23.30
2019-01-12T10:26:31.589Z,23.26
2019-01-12T10:27:32.726Z,23.21
2019-01-12T10:28:33.877Z,23.25
2019-01-12T10:29:34.994Z,23.29
2019-01-12T10:30:36.110Z,23.30
2019-01-12T10:31:37.228Z,23.34
2019-01-12T10:32:38.348Z,23.37
2019-01-12T10:33:39.463Z,23.34
2019-01-12T10:34:40.676Z,23.27
2019-01-12T10:35:41.798Z,23.28
2019-01-12T10:36:42.901Z,23.25
2019-01-12T10:37:44.025Z,23.26
2019-01-12T10:38:45.152Z,23.24
2019-01-12T10:39:46.305Z,23.21
2019-01-12T10:40:47.589Z,23.18
2019-01-12T10:41:48.697Z,23.17
2019-01-12T10:42:49.919Z,23.28
2019-01-12T10:43:51.136Z,23.50
2019-01-12T10:44:52.249Z,23.60
2019-01-12T10:45:53.362Z,23.47
2019-01-12T10:46:54.481Z,23.45
2019-01-12T10:47:55.642Z,23.46
2019-01-12T10:48:56.855Z,23.48
2019-01-12T10:49:57.970Z,23.54
2019-01-12T10:50:59.088Z,23.62
2019-01-12T10:52:00.200Z,23.52
2019-01-12T10:53:01.899Z,23.57
2019-01-12T10:54:03.314Z,23.61
2019-01-12T10:55:05.124Z,23.67
2019-01-12T10:56:06.332Z,23.74
2019-01-12T10:57:07.450Z,24.01
2019-01-12T10:58:08.772Z,23.86
2019-01-12T10:59:09.888Z,23.84
2019-01-12T11:00:25.733Z,23.86
2019-01-12T11:01:26.847Z,23.85
2019-01-12T11:02:27.961Z,23.85
2019-01-12T11:03:29.184Z,23.88
2019-01-12T11:04:30.305Z,23.83
2019-01-12T11:05:31.616Z,23.99
2019-01-12T11:06:32.724Z,23.91
2019-01-12T11:07:33.942Z,23.88
2019-01-12T11:08:35.370Z,23.90
2019-01-12T11:09:36.480Z,23.94
2019-01-12T11:10:37.736Z,23.97
2019-01-12T11:11:38.851Z,24.01
2019-01-12T11:12:40.062Z,23.91
2019-01-12T11:13:41.189Z,23.85
2019-01-12T11:14:42.407Z,23.79
2019-01-12T11:15:43.617Z,23.77
2019-01-12T11:16:44.729Z,23.87
2019-01-12T11:17:46.136Z,23.76
2019-01-12T11:18:47.268Z,23.80
2019-01-12T11:19:48.381Z,23.73
2019-01-12T11:20:49.498Z,23.69
2019-01-12T11:21:50.609Z,23.69
2019-01-12T11:22:51.924Z,23.66
2019-01-12T11:23:53.148Z,23.66
2019-01-12T11:24:54.474Z,23.56
2019-01-12T11:25:55.593Z,23.57
2019-01-12T11:26:56.700Z,23.63
2019-01-12T11:27:57.811Z,23.61
2019-01-12T11:28:59.048Z,23.58
2019-01-12T11:30:00.242Z,23.55
2019-01-12T11:31:01.391Z,23.51
2019-01-12T11:32:02.609Z,23.55
2019-01-12T11:33:03.927Z,23.54
2019-01-12T11:34:05.060Z,23.52
2019-01-12T11:35:07.877Z,23.48
2019-01-12T11:36:08.992Z,23.49
2019-01-12T11:37:10.104Z,23.49
2019-01-12T11:38:11.220Z,23.41
2019-01-12T11:39:12.356Z,23.32
2019-01-12T11:40:15.961Z,23.38
2019-01-12T11:41:17.076Z,23.44
2019-01-12T11:42:18.286Z,23.47
2019-01-12T11:43:19.396Z,23.40
2019-01-12T11:44:20.538Z,23.36
2019-01-12T11:45:21.660Z,23.35
2019-01-12T11:46:22.872Z,23.30
2019-01-12T11:47:24.159Z,23.30
2019-01-12T11:48:25.278Z,23.23
2019-01-12T11:49:26.403Z,23.22
2019-01-12T11:50:27.510Z,23.24
2019-01-12T11:51:28.620Z,23.19
2019-01-12T11:52:29.735Z,23.24
2019-01-12T11:53:30.963Z,23.19
2019-01-12T11:54:32.196Z,23.15
2019-01-12T11:55:33.650Z,23.13
2019-01-12T11:56:34.761Z,23.13
2019-01-12T11:57:35.974Z,23.17
2019-01-12T11:58:37.192Z,23.18
2019-01-12T11:59:38.316Z,23.17
2019-01-12T12:00:39.428Z,23.24
2019-01-12T12:01:40.536Z,23.22
2019-01-12T12:02:41.758Z,23.18
2019-01-12T12:03:42.864Z,23.18
2019-01-12T12:04:43.988Z,23.17
2019-01-12T12:05:45.104Z,23.11
2019-01-12T12:06:46.215Z,23.12
2019-01-12T12:07:47.324Z,23.19
2019-01-12T12:08:48.431Z,23.14
2019-01-12T12:09:49.560Z,23.12
2019-01-12T12:10:50.672Z,23.17
2019-01-12T12:11:51.788Z,23.26
2019-01-12T12:12:53.003Z,23.22
2019-01-12T12:13:54.224Z,23.25
2019-01-12T12:14:55.461Z,23.19
2019-01-12T12:15:56.577Z,23.20
2019-01-12T12:16:57.696Z,23.15
2019-01-12T12:17:58.820Z,23.15
2019-01-12T12:19:00.041Z,23.22
2019-01-12T12:20:01.274Z,23.17
2019-01-12T12:21:02.484Z,23.22
2019-01-12T12:22:03.805Z,23.20
2019-01-12T12:23:04.917Z,23.19
2019-01-12T12:24:06.030Z,23.13
2019-01-12T12:25:07.253Z,23.16
2019-01-12T12:26:08.878Z,23.15
2019-01-12T12:27:10.000Z,23.17
2019-01-12T12:28:11.322Z,23.15
2019-01-12T12:29:12.447Z,23.07
2019-01-12T12:30:18.891Z,23.14
2019-01-12T12:31:20.040Z,23.13
2019-01-12T12:32:21.257Z,23.10
2019-01-12T12:33:22.483Z,23.08
2019-01-12T12:34:23.703Z,23.10
2019-01-12T12:35:24.939Z,23.15
2019-01-12T12:36:26.059Z,23.16
2019-01-12T12:37:27.267Z,23.15
2019-01-12T12:38:28.394Z,23.17
2019-01-12T12:39:29.688Z,23.09
2019-01-12T12:40:30.915Z,23.10
2019-01-12T12:41:32.135Z,23.12
2019-01-12T12:42:33.244Z,23.08
2019-01-12T12:43:34.361Z,23.14
2019-01-12T12:44:35.578Z,23.16
2019-01-12T12:45:36.809Z,23.21
2019-01-12T12:46:37.922Z,23.16
2019-01-12T12:47:39.031Z,23.15
2019-01-12T12:48:40.157Z,23.13
2019-01-12T12:49:41.378Z,23.11
2019-01-12T12:50:42.507Z,23.13
2019-01-12T12:51:43.727Z,23.15
2019-01-12T12:52:44.843Z,23.11
2019-01-12T12:53:46.055Z,23.11
2019-01-12T12:54:47.270Z,23.08
2019-01-12T12:55:48.498Z,23.06
2019-01-12T12:56:49.616Z,23.08
2019-01-12T12:57:50.726Z,23.09
2019-01-12T12:58:51.841Z,23.11
2019-01-12T12:59:52.961Z,23.09
2019-01-12T13:00:54.188Z,23.07
2019-01-12T13:01:55.304Z,23.08
2019-01-12T13:02:56.520Z,23.06
2019-01-12T13:03:57.642Z,23.10
2019-01-12T13:04:58.874Z,23.11
2019-01-12T13:06:00.003Z,23.08
2019-01-12T13:07:01.121Z,23.11
2019-01-12T13:08:02.775Z,23.05
2019-01-12T13:09:05.640Z,23.06